Time;durP1;ratioP1;P1;durP2;ratioP2;P2;SDS_P1;SDS_P2;PMS_P1;PMS_P2;Temp;Humidity;BMP_temperature;BMP_pressure;BME280_temperature;BME280_humidity;BME280_pressure;Samples;Min_cycle;Max_cycle;Signal;HPM_P1;HPM_P2
2022/10/09 00:00:36;;;;;;;9.23;3.65;;;;;;;-148.88;100.00;77073.34;4973464;28;20023;-76
2022/10/09 00:03:01;;;;;;;9.18;5.13;;;;;;;-148.88;100.00;77065.22;4974667;28;20027;-76
2022/10/09 00:05:27;;;;;;;10.80;5.35;;;;;;;-148.88;100.00;77067.25;4975248;28;20396;-76
2022/10/09 00:07:53;;;;;;;11.90;5.60;;;;;;;-148.88;100.00;77067.25;4974939;28;20138;-76
2022/10/09 00:10:19;;;;;;;9.50;3.53;;;;;;;-148.88;100.00;77071.31;4974724;28;20039;-76
2022/10/09 00:12:44;;;;;;;13.80;6.03;;;;;;;-148.88;100.00;77073.34;4974600;28;20070;-76
2022/10/09 00:15:10;;;;;;;10.38;3.95;;;;;;;-148.88;100.00;77081.47;4974579;28;20057;-75
2022/10/09 00:17:35;;;;;;;8.70;5.43;;;;;;;-148.88;100.00;77071.31;4973330;28;20382;-76
2022/10/09 00:20:00;;;;;;;11.70;6.40;;;;;;;-148.88;100.00;77061.16;4974611;28;20026;-76
2022/10/09 00:22:26;;;;;;;9.73;4.00;;;;;;;-148.88;100.00;77073.34;4974355;28;20042;-76
2022/10/09 00:24:52;;;;;;;16.05;6.40;;;;;;;-148.88;100.00;77077.41;4974372;28;20041;-76
2022/10/09 00:27:17;;;;;;;9.43;4.32;;;;;;;-148.88;100.00;77081.47;4973162;28;20050;-76
2022/10/09 00:29:42;;;;;;;7.43;4.15;;;;;;;-148.88;100.00;77079.44;4973135;28;20387;-76
2022/10/09 00:32:08;;;;;;;13.45;6.07;;;;;;;-148.88;100.00;77081.47;5073191;23;20058;-76
2022/10/09 00:34:33;;;;;;;16.00;6.63;;;;;;;-148.88;100.00;77079.44;4955028;28;20042;-76
2022/10/09 00:36:58;;;;;;;7.05;4.10;;;;;;;-148.88;100.00;77087.56;4955263;29;20023;-76
2022/10/09 00:39:23;;;;;;;11.63;4.05;;;;;;;-148.88;100.00;77087.56;4955019;29;20083;-76
2022/10/09 00:41:49;;;;;;;13.70;6.20;;;;;;;-148.88;100.00;77101.78;4953716;28;20034;-76
2022/10/09 00:44:51;;;;;;;13.52;6.63;;;;;;;-148.88;100.00;77097.72;4954887;28;20023;-76
2022/10/09 00:47:35;;;;;;;7.93;3.53;;;;;;;-148.88;100.00;77097.72;4980016;23;20050;-74
2022/10/09 00:50:14;;;;;;;11.10;3.97;;;;;;;-148.88;100.00;77109.94;4972931;28;20076;-73
2022/10/09 00:52:40;;;;;;;9.05;6.40;;;;;;;-148.88;100.00;77103.81;4973426;28;20030;-73
2022/10/09 00:55:06;;;;;;;11.68;6.78;;;;;;;-148.88;100.00;77114.00;4973653;28;20026;-74
2022/10/09 00:57:32;;;;;;;13.63;6.88;;;;;;;-148.88;100.00;77109.94;4973444;28;20371;-74
2022/10/09 01:00:04;;;;;;;19.67;4.78;;;;;;;-148.88;100.00;77114.00;4973390;28;20027;-74
2022/10/09 01:02:29;;;;;;;8.85;4.20;;;;;;;-148.88;100.00;77122.13;4973330;28;20030;-73
2022/10/09 01:04:54;;;;;;;11.57;7.47;;;;;;;-148.88;100.00;77120.09;4973383;28;20465;-73
2022/10/09 01:07:25;;;;;;;9.88;5.70;;;;;;;-148.88;100.00;77120.09;4973289;28;20058;-73
2022/10/09 01:10:15;;;;;;;10.45;5.00;;;;;;;-148.88;100.00;77120.09;4973470;28;20029;-74
2022/10/09 01:12:52;;;;;;;12.40;5.43;;;;;;;-148.88;100.00;77136.34;4973612;28;20034;-74
2022/10/09 01:15:32;;;;;;;11.70;7.93;;;;;;;-148.88;100.00;77130.25;4973476;28;20034;-74
2022/10/09 01:18:27;;;;;;;13.93;5.68;;;;;;;-148.88;100.00;77136.34;4973820;28;20497;-73
2022/10/09 01:21:24;;;;;;;9.85;5.07;;;;;;;-148.88;100.00;77138.38;4973678;28;20477;-74
2022/10/09 01:24:05;;;;;;;9.10;4.38;;;;;;;-148.88;100.00;77146.50;4972968;28;20041;-73
2022/10/09 01:26:33;;;;;;;14.02;7.97;;;;;;;-148.88;100.00;77166.81;4973795;28;20139;-74
2022/10/09 01:29:02;;;;;;;12.32;7.47;;;;;;;-148.88;100.00;77170.88;4973671;28;20027;-73
2022/10/09 01:31:31;;;;;;;13.30;4.50;;;;;;;-148.88;100.00;77174.94;4973394;28;20022;-74
2022/10/09 01:34:00;;;;;;;9.63;4.32;;;;;;;-148.88;100.00;77195.25;4973534;28;20097;-73
2022/10/09 01:36:28;;;;;;;11.73;4.75;;;;;;;-148.88;100.00;77201.34;4973184;28;20022;-73
2022/10/09 01:38:57;;;;;;;12.68;6.60;;;;;;;-148.88;100.00;77215.59;4977615;28;20495;-73
2022/10/09 01:41:23;;;;;;;11.25;7.03;;;;;;;-148.88;100.00;77211.53;4977308;28;20037;-74
2022/10/09 01:43:49;;;;;;;10.10;3.75;;;;;;;-148.88;100.00;77223.72;4977051;28;20027;-73
2022/10/09 01:46:18;;;;;;;11.60;4.68;;;;;;;-148.88;100.00;77233.88;4976516;28;20089;-74
2022/10/09 01:49:10;;;;;;;11.68;4.82;;;;;;;-148.88;100.00;77233.88;4976620;28;20101;-73
2022/10/09 01:51:56;;;;;;;9.40;4.43;;;;;;;-148.88;100.00;77250.13;4976301;28;20043;-74
2022/10/09 01:54:46;;;;;;;11.52;4.93;;;;;;;-148.88;100.00;77254.19;4976699;28;20101;-73
2022/10/09 01:57:32;;;;;;;9.50;4.38;;;;;;;-148.88;100.00;77258.25;4976192;28;20506;-73
2022/10/09 02:00:00;;;;;;;12.75;7.25;;;;;;;-148.88;100.00;77256.22;4976946;28;20355;-73
2022/10/09 02:02:26;;;;;;;8.07;4.38;;;;;;;-148.88;100.00;77260.28;4976304;28;20574;-74
2022/10/09 02:04:52;;;;;;;11.55;3.88;;;;;;;-148.88;100.00;77256.22;4976897;28;20031;-73
2022/10/09 02:07:18;;;;;;;11.27;4.22;;;;;;;-148.88;100.00;77260.28;4976460;28;20038;-74
2022/10/09 02:09:45;;;;;;;7.10;3.88;;;;;;;-148.88;100.00;77264.34;4976821;28;20026;-73
2022/10/09 02:12:13;;;;;;;9.93;4.15;;;;;;;-148.88;100.00;77268.41;4976391;28;20389;-74
2022/10/09 02:14:38;;;;;;;11.60;5.00;;;;;;;-148.88;100.00;77258.25;4976205;28;20023;-73
2022/10/09 02:17:30;;;;;;;14.63;6.85;;;;;;;-148.88;100.00;77260.28;4976174;28;20073;-73
2022/10/09 02:20:02;;;;;;;8.68;4.20;;;;;;;-148.88;100.00;77264.34;4976378;28;20034;-73
2022/10/09 02:22:30;;;;;;;9.18;4.00;;;;;;;-148.88;100.00;77260.28;4975927;28;20033;-74
2022/10/09 02:24:58;;;;;;;11.75;6.93;;;;;;;-148.88;100.00;77252.16;4976051;28;20073;-73
2022/10/09 02:27:25;;;;;;;10.75;4.15;;;;;;;-148.88;100.00;77254.19;4975993;28;20106;-74
2022/10/09 02:29:51;;;;;;;5.88;3.55;;;;;;;-148.88;100.00;77260.28;4976214;28;20027;-73
2022/10/09 02:32:17;;;;;;;9.32;4.50;;;;;;;-148.88;100.00;77272.47;4976052;28;20117;-73
2022/10/09 02:34:43;;;;;;;10.68;4.70;;;;;;;-148.88;100.00;77268.41;4976358;28;20093;-73
2022/10/09 02:37:08;;;;;;;12.02;4.60;;;;;;;-148.88;100.00;77284.66;4975843;28;20400;-74
2022/10/09 02:39:34;;;;;;;8.30;4.30;;;;;;;-148.88;100.00;77278.56;4975732;28;20030;-73
2022/10/09 02:41:59;;;;;;;13.07;5.13;;;;;;;-148.88;100.00;77280.59;4975834;28;20022;-74
2022/10/09 02:44:25;;;;;;;14.45;5.05;;;;;;;-148.88;100.00;77280.59;4975546;28;20557;-74
2022/10/09 02:46:50;;;;;;;10.10;4.00;;;;;;;-148.88;100.00;77280.59;4975502;28;20030;-73
2022/10/09 02:49:16;;;;;;;9.75;4.47;;;;;;;-148.88;100.00;77282.63;4974496;28;20409;-73
2022/10/09 02:51:41;;;;;;;14.13;5.15;;;;;;;-148.88;100.00;77286.69;4975442;28;20113;-74
2022/10/09 02:54:06;;;;;;;10.75;4.57;;;;;;;-148.88;100.00;77296.88;4975429;28;20042;-74
2022/10/09 02:56:32;;;;;;;9.15;4.55;;;;;;;-148.88;100.00;77296.88;4975563;28;20034;-73
2022/10/09 02:58:57;;;;;;;8.50;4.90;;;;;;;-148.88;100.00;77300.94;4975286;28;20023;-73
2022/10/09 03:01:23;;;;;;;9.05;4.60;;;;;;;-148.88;100.00;77302.97;4973927;28;20408;-73
2022/10/09 03:03:48;;;;;;;9.13;4.90;;;;;;;-148.88;100.00;77309.06;4975140;28;20074;-73
2022/10/09 03:06:17;;;;;;;11.05;4.65;;;;;;;-148.88;100.00;77305.00;4975157;28;20080;-73
2022/10/09 03:08:46;;;;;;;8.05;4.65;;;;;;;-148.88;100.00;77313.13;4975619;28;20038;-73
2022/10/09 03:11:13;;;;;;;8.30;4.68;;;;;;;-148.88;100.00;77311.09;4958244;28;20114;-73
2022/10/09 03:13:39;;;;;;;6.60;4.50;;;;;;;-148.88;100.00;77313.13;4975449;28;20035;-73
2022/10/09 03:16:11;;;;;;;11.50;4.72;;;;;;;-148.88;100.00;77317.19;4975360;28;20061;-73
2022/10/09 03:18:37;;;;;;;10.98;4.60;;;;;;;-148.88;100.00;77315.16;4975428;28;20037;-73
2022/10/09 03:21:08;;;;;;;9.40;4.80;;;;;;;-148.88;100.00;77323.28;4975145;28;20038;-74
2022/10/09 03:23:33;;;;;;;13.60;7.68;;;;;;;-148.88;100.00;77331.41;4975121;28;20019;-73
2022/10/09 03:26:01;;;;;;;11.07;4.88;;;;;;;-148.88;100.00;77327.34;4975150;28;20034;-73
2022/10/09 03:28:28;;;;;;;8.98;4.60;;;;;;;-148.88;100.00;77329.38;4975065;28;20049;-74
2022/10/09 03:30:53;;;;;;;12.25;5.30;;;;;;;-148.88;100.00;77341.56;4974798;28;20038;-73
2022/10/09 03:33:19;;;;;;;8.20;5.20;;;;;;;-148.88;100.00;77343.59;4974923;28;20018;-73
2022/10/09 03:35:46;;;;;;;8.07;4.88;;;;;;;-148.88;100.00;77351.72;4974628;28;20034;-73
2022/10/09 03:38:11;;;;;;;17.08;5.55;;;;;;;-148.88;100.00;77355.78;4974623;28;20033;-73
2022/10/09 03:40:37;;;;;;;12.85;5.53;;;;;;;-148.88;100.00;77357.81;4973204;28;20153;-73
2022/10/09 03:43:02;;;;;;;8.68;4.93;;;;;;;-148.88;100.00;77365.94;4974585;28;20022;-73
2022/10/09 03:45:27;;;;;;;13.55;5.35;;;;;;;-148.88;100.00;77370.00;4974623;28;20077;-73
2022/10/09 03:47:53;;;;;;;9.32;5.18;;;;;;;-148.88;100.00;77363.91;4973294;28;20422;-73
2022/10/09 03:50:18;;;;;;;10.93;6.20;;;;;;;-148.88;100.00;77367.97;4974414;28;20031;-74
2022/10/09 03:52:43;;;;;;;10.43;5.57;;;;;;;-148.88;100.00;77370.00;4974377;28;20027;-73
2022/10/09 03:55:09;;;;;;;8.75;5.18;;;;;;;-148.88;100.00;77361.88;4974381;28;20139;-73
2022/10/09 03:57:34;;;;;;;8.60;5.28;;;;;;;-148.88;100.00;77386.28;4974310;28;20522;-74
2022/10/09 03:59:59;;;;;;;9.65;5.22;;;;;;;-148.88;100.00;77390.34;4974022;28;20089;-73
2022/10/09 04:02:25;;;;;;;15.30;5.45;;;;;;;-148.88;100.00;77396.44;4974391;28;20030;-73
2022/10/09 04:04:50;;;;;;;7.90;5.30;;;;;;;-148.88;100.00;77400.50;4974533;28;20034;-73
2022/10/09 04:07:15;;;;;;;11.43;5.45;;;;;;;-148.88;100.00;77406.59;4973096;28;20101;-74
2022/10/09 04:09:41;;;;;;;15.07;6.50;;;;;;;-148.88;100.00;77400.50;4974459;28;20482;-73
2022/10/09 04:12:06;;;;;;;13.55;6.00;;;;;;;-148.88;100.00;77406.59;4974048;28;20479;-74
2022/10/09 04:14:31;;;;;;;12.13;6.40;;;;;;;-148.88;100.00;77396.44;4974498;28;20085;-73
2022/10/09 04:16:57;;;;;;;11.40;6.43;;;;;;;-148.88;100.00;77400.50;4974314;28;20085;-73
2022/10/09 04:19:22;;;;;;;13.93;6.05;;;;;;;-148.88;100.00;77394.41;4974408;28;20058;-73
2022/10/09 04:21:47;;;;;;;12.52;6.80;;;;;;;-148.88;100.00;77394.41;4972827;28;20049;-73
2022/10/09 04:24:12;;;;;;;15.52;6.95;;;;;;;-148.88;100.00;77394.41;4972797;28;20038;-73
2022/10/09 04:26:38;;;;;;;15.43;6.63;;;;;;;-148.88;100.00;77390.34;4974144;28;20027;-73
2022/10/09 04:29:03;;;;;;;14.00;6.78;;;;;;;-148.88;100.00;77392.38;4973766;28;20022;-73
2022/10/09 04:31:29;;;;;;;16.70;6.57;;;;;;;-148.88;100.00;77386.28;4973901;28;20393;-73
2022/10/09 04:33:54;;;;;;;12.70;6.05;;;;;;;-148.88;100.00;77384.25;4973733;28;20019;-73
2022/10/09 04:36:20;;;;;;;10.63;6.30;;;;;;;-148.88;100.00;77390.34;4973915;28;20114;-73
2022/10/09 04:38:45;;;;;;;10.30;6.13;;;;;;;-148.88;100.00;77396.44;4973591;28;20027;-73
2022/10/09 04:41:11;;;;;;;16.05;6.30;;;;;;;-148.88;100.00;77406.59;4973589;28;20571;-74
2022/10/09 04:43:37;;;;;;;12.55;5.95;;;;;;;-148.88;100.00;77414.72;4973433;28;20027;-73
2022/10/09 04:46:06;;;;;;;12.00;6.03;;;;;;;-148.88;100.00;77408.63;4973424;28;20031;-73
2022/10/09 04:48:37;;;;;;;14.82;6.30;;;;;;;-148.88;100.00;77414.72;4973803;28;20371;-73
2022/10/09 04:51:05;;;;;;;8.70;5.80;;;;;;;-148.88;100.00;77414.72;4973379;28;20058;-74
2022/10/09 04:53:30;;;;;;;11.38;6.00;;;;;;;-148.88;100.00;77402.53;4973466;28;20019;-73
2022/10/09 04:55:56;;;;;;;15.60;6.13;;;;;;;-148.88;100.00;77416.75;4973401;28;20029;-73
2022/10/09 04:58:21;;;;;;;10.20;5.78;;;;;;;-148.88;100.00;77416.75;4973368;28;20031;-73
2022/10/09 05:00:46;;;;;;;10.43;5.72;;;;;;;-148.88;100.00;77414.72;4973459;28;20057;-73
2022/10/09 05:03:12;;;;;;;9.98;5.32;;;;;;;-148.88;100.00;77418.78;4973257;28;20386;-73
2022/10/09 05:05:37;;;;;;;9.13;4.78;;;;;;;-148.88;100.00;77426.91;4973832;28;20111;-73
2022/10/09 05:08:03;;;;;;;11.60;5.60;;;;;;;-148.88;100.00;77435.03;4973545;28;20026;-73
2022/10/09 05:10:31;;;;;;;12.68;5.47;;;;;;;-148.88;100.00;77426.91;4973614;28;20023;-73
2022/10/09 05:12:57;;;;;;;8.40;5.45;;;;;;;-148.88;100.00;77426.91;4977203;28;20098;-73
2022/10/09 05:15:23;;;;;;;10.70;5.68;;;;;;;-148.88;100.00;77430.97;4977514;28;20118;-73
2022/10/09 05:17:48;;;;;;;9.13;5.22;;;;;;;-148.88;100.00;77435.03;4977249;28;20029;-73
2022/10/09 05:20:14;;;;;;;14.30;6.22;;;;;;;-148.88;100.00;77441.13;4977172;28;20022;-73
2022/10/09 05:22:43;;;;;;;10.63;5.38;;;;;;;-148.88;100.00;77441.13;4976860;28;20035;-73
2022/10/09 05:25:09;;;;;;;10.80;4.90;;;;;;;-148.88;100.00;77451.28;4975738;28;20043;-73
2022/10/09 05:27:36;;;;;;;10.70;5.68;;;;;;;-148.88;100.00;77445.19;4975606;28;20499;-73
2022/10/09 05:30:04;;;;;;;8.00;4.25;;;;;;;-148.88;100.00;77447.22;4976966;28;20033;-73
2022/10/09 05:32:32;;;;;;;10.82;5.72;;;;;;;-148.88;100.00;77457.41;4977062;28;20023;-73
2022/10/09 05:34:57;;;;;;;11.75;5.43;;;;;;;-148.88;100.00;77459.44;4976060;28;20343;-73
2022/10/09 05:37:22;;;;;;;10.60;5.10;;;;;;;-148.88;100.00;77455.38;4977249;28;20038;-73
2022/10/09 05:39:48;;;;;;;8.63;5.20;;;;;;;-148.88;100.00;77465.53;4977382;28;20050;-73
2022/10/09 05:42:13;;;;;;;10.52;4.93;;;;;;;-148.88;100.00;77463.50;4977231;28;20031;-73
2022/10/09 05:44:38;;;;;;;10.02;5.28;;;;;;;-148.88;100.00;77471.63;4977178;28;20038;-73
2022/10/09 05:47:05;;;;;;;13.30;5.72;;;;;;;-148.88;100.00;77473.66;4977133;28;20113;-73
2022/10/09 05:49:31;;;;;;;10.05;4.90;;;;;;;-148.88;100.00;77475.69;4977450;28;20066;-73
2022/10/09 05:51:58;;;;;;;9.93;5.47;;;;;;;-148.88;100.00;77477.72;4977088;28;20030;-73
2022/10/09 05:54:26;;;;;;;11.32;5.97;;;;;;;-148.88;100.00;77473.66;4975847;28;20449;-73
2022/10/09 05:56:51;;;;;;;13.50;6.38;;;;;;;-148.88;100.00;77471.63;4976150;28;20039;-74
2022/10/09 05:59:18;;;;;;;11.93;5.88;;;;;;;-148.88;100.00;77467.56;4977023;28;20057;-73
2022/10/09 06:01:48;;;;;;;9.70;5.32;;;;;;;-148.88;100.00;77463.50;4959604;28;20493;-73
2022/10/09 06:04:19;;;;;;;9.10;4.78;;;;;;;-148.88;100.00;77459.44;4977541;28;20027;-73
2022/10/09 06:06:47;;;;;;;9.10;5.43;;;;;;;-148.88;100.00;77457.41;4976792;28;20022;-73
2022/10/09 06:09:14;;;;;;;8.25;5.43;;;;;;;-148.88;100.00;77453.31;4976792;28;20508;-74
2022/10/09 06:11:40;;;;;;;8.95;5.07;;;;;;;-148.88;100.00;77451.28;4976779;28;20029;-73
2022/10/09 06:14:08;;;;;;;8.38;5.00;;;;;;;-148.88;100.00;77449.25;4976738;28;20030;-72
2022/10/09 06:16:36;;;;;;;8.07;5.18;;;;;;;-148.88;100.00;77443.16;4977044;28;20031;-73
2022/10/09 06:19:02;;;;;;;10.05;5.45;;;;;;;-148.88;100.00;77451.28;4976928;28;20027;-73
2022/10/09 06:21:28;;;;;;;15.73;5.45;;;;;;;-148.88;100.00;77451.28;4976383;28;20035;-73
2022/10/09 06:23:56;;;;;;;7.60;4.97;;;;;;;-148.88;100.00;77449.25;4976510;28;20110;-73
2022/10/09 06:26:22;;;;;;;13.50;5.82;;;;;;;-148.88;100.00;77451.28;4976798;28;20037;-73
2022/10/09 06:28:48;;;;;;;8.10;4.60;;;;;;;-148.88;100.00;77451.28;4975164;28;20452;-72
2022/10/09 06:31:20;;;;;;;9.55;5.57;;;;;;;-148.88;100.00;77447.22;4975213;28;20018;-74
2022/10/09 06:33:47;;;;;;;8.63;5.05;;;;;;;-148.88;100.00;77453.31;4976625;28;20482;-73
2022/10/09 06:36:21;;;;;;;9.25;5.05;;;;;;;-148.88;100.00;77449.25;4976287;28;20481;-73
2022/10/09 06:38:47;;;;;;;11.10;5.50;;;;;;;-148.88;100.00;77439.09;4976290;28;20485;-73
2022/10/09 06:41:15;;;;;;;11.27;6.47;;;;;;;-148.88;100.00;77439.09;4976200;28;20038;-73
2022/10/09 06:43:42;;;;;;;10.52;6.22;;;;;;;-148.88;100.00;77430.97;4976098;28;20023;-72
2022/10/09 06:46:10;;;;;;;11.52;6.10;;;;;;;-148.88;100.00;77437.06;4976126;28;20088;-73
2022/10/09 06:48:37;;;;;;;12.65;6.45;;;;;;;-148.88;100.00;77428.94;4976394;28;20114;-73
2022/10/09 06:51:04;;;;;;;11.63;6.45;;;;;;;-148.88;100.00;77435.03;4976303;28;20486;-73
2022/10/09 06:53:33;;;;;;;11.30;6.10;;;;;;;-148.88;100.00;77428.94;4976179;28;20023;-72
2022/10/09 06:56:01;;;;;;;9.55;5.57;;;;;;;-148.88;100.00;77426.91;4975971;28;20035;-73
2022/10/09 06:58:27;;;;;;;8.75;5.63;;;;;;;-148.88;100.00;77426.91;4975935;28;20495;-72
2022/10/09 07:01:13;;;;;;;9.00;5.43;;;;;;;-148.88;100.00;77435.03;4975822;28;20027;-73
2022/10/09 07:03:41;;;;;;;14.00;5.88;;;;;;;-148.88;100.00;77430.97;4976116;28;20549;-72
2022/10/09 07:06:11;;;;;;;9.95;5.50;;;;;;;-148.88;100.00;77428.94;4975742;28;20437;-72
2022/10/09 07:08:38;;;;;;;9.95;5.80;;;;;;;-148.88;100.00;77435.03;4975855;28;20026;-73
2022/10/09 07:11:25;;;;;;;10.00;5.40;;;;;;;-148.88;100.00;77426.91;4974387;28;20062;-72
2022/10/09 07:13:56;;;;;;;10.45;5.97;;;;;;;-148.88;100.00;77420.81;4975678;28;20027;-73
2022/10/09 07:16:23;;;;;;;11.70;6.03;;;;;;;-148.88;100.00;77422.84;4975644;28;20059;-72
2022/10/09 07:18:49;;;;;;;10.32;6.18;;;;;;;-148.88;100.00;77418.78;4975633;28;20022;-72
2022/10/09 07:21:15;;;;;;;11.85;5.90;;;;;;;-148.88;100.00;77410.66;4975499;28;20022;-72
2022/10/09 07:23:41;;;;;;;10.10;5.90;;;;;;;-148.88;100.00;77408.63;4975402;28;20027;-72
2022/10/09 07:26:14;;;;;;;13.65;6.47;;;;;;;-148.88;100.00;77410.66;4975467;28;20031;-73
2022/10/09 07:28:41;;;;;;;9.77;5.95;;;;;;;-148.88;100.00;77400.50;4975534;28;20054;-72
2022/10/09 07:31:06;;;;;;;14.73;8.05;;;;;;;-148.88;100.00;77398.47;4975508;28;20121;-72
2022/10/09 07:33:32;;;;;;;12.50;7.05;;;;;;;-148.88;100.00;77390.34;4990308;28;20122;-73
2022/10/09 07:36:01;;;;;;;12.50;6.60;;;;;;;-148.88;100.00;77384.25;4974856;28;20485;-72
2022/10/09 07:38:27;;;;;;;11.65;6.57;;;;;;;-148.88;100.00;77378.16;4975186;28;20031;-73
2022/10/09 07:40:53;;;;;;;10.48;6.47;;;;;;;-148.88;100.00;77380.19;4975055;28;20125;-73
2022/10/09 07:43:19;;;;;;;13.85;6.75;;;;;;;-148.88;100.00;77363.91;4975146;28;20023;-73
2022/10/09 07:45:45;;;;;;;13.82;7.22;;;;;;;-148.88;100.00;77355.78;4975132;28;20022;-73
2022/10/09 07:48:11;;;;;;;12.48;7.68;;;;;;;-148.88;100.00;77349.69;4975018;28;20057;-73
2022/10/09 07:50:38;;;;;;;12.85;7.60;;;;;;;-148.88;100.00;77343.59;4974974;28;20027;-73
2022/10/09 07:53:04;;;;;;;13.05;7.43;;;;;;;-148.88;100.00;77331.41;4975013;28;20470;-73
2022/10/09 07:55:30;;;;;;;19.15;13.65;;;;;;;-148.88;100.00;77315.16;4974888;28;20023;-73
2022/10/09 07:57:55;;;;;;;14.68;8.43;;;;;;;-148.88;100.00;77305.00;4973588;28;20401;-73
2022/10/09 08:00:21;;;;;;;13.95;7.30;;;;;;;-148.88;100.00;77294.84;4974561;28;20605;-72
2022/10/09 08:02:46;;;;;;;14.25;8.18;;;;;;;-148.88;100.00;77282.63;4973641;28;20030;-73
2022/10/09 08:05:12;;;;;;;22.35;9.05;;;;;;;-148.88;100.00;77264.34;4974997;28;20034;-73
2022/10/09 08:07:37;;;;;;;19.20;9.52;;;;;;;-148.88;100.00;77248.09;4975200;28;20019;-73
2022/10/09 08:10:04;;;;;;;16.98;8.25;;;;;;;-148.88;100.00;77237.94;4974582;28;20551;-73
2022/10/09 08:12:30;;;;;;;16.00;9.38;;;;;;;-148.88;100.00;77215.59;4974462;28;20026;-73
2022/10/09 08:14:55;;;;;;;16.30;8.70;;;;;;;-148.88;100.00;77205.44;4974856;28;20066;-73
2022/10/09 08:17:20;;;;;;;19.88;9.52;;;;;;;-148.88;100.00;77199.31;4974835;28;20022;-73
2022/10/09 08:19:46;;;;;;;14.77;8.98;;;;;;;-148.88;100.00;77197.28;4974414;28;20030;-73
2022/10/09 08:22:11;;;;;;;22.23;9.48;;;;;;;-148.88;100.00;77183.06;4974389;28;20102;-73
2022/10/09 08:24:38;;;;;;;18.05;9.00;;;;;;;-148.88;100.00;77148.53;4974378;28;20519;-73
2022/10/09 08:27:04;;;;;;;19.98;10.07;;;;;;;-148.88;100.00;77142.44;4974341;28;20035;-74
2022/10/09 08:29:30;;;;;;;22.80;10.77;;;;;;;-148.88;100.00;77128.22;4974296;28;20054;-73
2022/10/09 08:31:56;;;;;;;23.00;9.85;;;;;;;-148.88;100.00;77116.03;4974189;28;20058;-73
2022/10/09 08:34:24;;;;;;;17.98;9.13;;;;;;;-148.88;100.00;77101.78;4974283;28;20046;-73
2022/10/09 08:36:49;;;;;;;19.48;10.40;;;;;;;-148.88;100.00;77079.44;4974304;28;20058;-73
2022/10/09 08:39:14;;;;;;;21.40;9.77;;;;;;;-148.88;100.00;77055.06;4974223;28;20061;-73
2022/10/09 08:41:50;;;;;;;22.83;9.85;;;;;;;-148.88;100.00;77024.59;4972790;28;20019;-73
2022/10/09 08:44:16;;;;;;;19.33;9.80;;;;;;;-148.88;100.00;76996.13;4974049;28;20057;-73
2022/10/09 08:47:00;;;;;;;18.77;9.00;;;;;;;-148.88;100.00;76971.75;4974162;28;20565;-73
2022/10/09 08:49:45;;;;;;;15.35;8.73;;;;;;;-148.88;100.00;76949.41;4974105;28;20023;-74
2022/10/09 08:52:33;;;;;;;19.95;14.23;;;;;;;-148.88;100.00;76951.44;4974320;28;20059;-76
2022/10/09 08:55:07;;;;;;;20.63;13.25;;;;;;;-148.88;100.00;76914.88;4973987;28;20035;-73
2022/10/09 08:57:33;;;;;;;14.53;7.93;;;;;;;-148.88;100.00;76906.75;4973086;28;20502;-73
2022/10/09 08:59:58;;;;;;;22.20;12.18;;;;;;;-148.88;100.00;76882.34;4974149;28;20264;-73
2022/10/09 09:02:45;;;;;;;17.88;11.75;;;;;;;-148.88;100.00;76847.81;4973869;28;20089;-74
2022/10/09 09:05:40;;;;;;;16.45;11.23;;;;;;;-148.88;100.00;76817.34;4973945;28;20478;-73
2022/10/09 09:08:22;;;;;;;16.52;11.57;;;;;;;-148.88;100.00;76784.84;4973892;28;20081;-74
2022/10/09 09:10:59;;;;;;;19.00;10.90;;;;;;;-148.88;100.00;76766.56;4974063;28;20035;-73
2022/10/09 09:14:02;;;;;;;22.50;16.13;;;;;;;-148.88;100.00;76740.13;4972594;28;20023;-73
2022/10/09 09:16:38;;;;;;;16.88;6.90;;;;;;;-148.88;100.00;76717.78;4974143;28;20031;-73
2022/10/09 09:19:37;;;;;;;12.98;8.32;;;;;;;-148.88;98.61;76723.88;4974208;28;20174;-74
2022/10/09 09:22:04;;;;;;;13.40;8.88;;;;;;;-148.88;99.40;76699.50;4973802;28;20470;-73
2022/10/09 09:24:34;;;;;;;13.38;7.82;;;;;;;-148.88;99.68;76679.19;4973767;28;20027;-74
2022/10/09 09:27:03;;;;;;;13.65;7.78;;;;;;;-148.88;97.39;76673.09;4973793;28;20083;-74
2022/10/09 09:29:38;;;;;;;14.82;7.90;;;;;;;-148.88;97.44;76644.66;4973761;28;20506;-73
2022/10/09 09:32:04;;;;;;;15.63;7.65;;;;;;;-148.88;97.10;76614.19;4973760;28;20118;-73
2022/10/09 09:34:39;;;;;;;12.85;8.88;;;;;;;-148.88;96.90;76599.94;4973805;28;20105;-74
2022/10/09 09:37:05;;;;;;;11.40;6.85;;;;;;;-148.88;95.98;76577.59;4972435;28;20027;-73
2022/10/09 09:39:33;;;;;;;13.27;7.13;;;;;;;-148.88;96.81;76536.97;4973664;28;20038;-74
2022/10/09 09:42:10;;;;;;;12.13;6.30;;;;;;;-148.88;96.40;76508.53;4973609;28;20117;-73
2022/10/09 09:44:40;;;;;;;12.93;5.97;;;;;;;-148.88;93.37;76500.41;4973601;28;20110;-72
2022/10/09 09:47:16;;;;;;;15.32;5.80;;;;;;;-148.88;89.77;76494.31;4973610;28;20035;-72
2022/10/09 09:49:53;;;;;;;10.30;5.55;;;;;;;-148.88;91.80;76453.69;4974070;28;20038;-72
2022/10/09 09:52:19;;;;;;;10.93;5.38;;;;;;;-148.88;90.31;76435.41;4973663;28;20030;-72
2022/10/09 09:54:47;;;;;;;10.73;5.25;;;;;;;-148.88;88.54;76411.00;4973626;28;20027;-72
2022/10/09 09:57:13;;;;;;;8.10;4.90;;;;;;;-148.88;88.16;76390.69;4974206;28;20061;-72
2022/10/09 09:59:41;;;;;;;10.20;4.60;;;;;;;-148.88;84.42;76388.66;4977261;28;20062;-72
2022/10/09 10:02:17;;;;;;;7.43;4.18;;;;;;;-148.88;84.58;76356.16;4977480;28;20027;-73
2022/10/09 10:05:00;;;;;;;8.80;4.25;;;;;;;-148.88;83.94;76348.03;4975689;28;20019;-72
2022/10/09 10:07:34;;;;;;;10.68;3.80;;;;;;;-148.88;83.05;76321.63;4977120;28;20027;-72
2022/10/09 10:10:08;;;;;;;9.45;3.72;;;;;;;-148.88;82.42;76309.44;4976964;28;20022;-72
2022/10/09 10:12:40;;;;;;;7.05;3.70;;;;;;;-148.88;79.91;76297.25;4977122;28;20039;-72
2022/10/09 10:15:17;;;;;;;10.82;4.00;;;;;;;-148.88;80.89;76260.69;4975906;28;20516;-72
2022/10/09 10:17:47;;;;;;;9.55;3.60;;;;;;;-148.88;81.18;76236.31;4977120;28;20454;-72
2022/10/09 10:20:17;;;;;;;11.32;4.32;;;;;;;-148.88;77.86;76216.00;4976865;28;20031;-72
2022/10/09 10:22:50;;;;;;;7.45;3.75;;;;;;;-148.88;79.43;76181.47;4976462;28;20560;-72
2022/10/09 10:25:19;;;;;;;8.23;3.50;;;;;;;-148.88;77.99;76165.22;4975345;28;20026;-72
2022/10/09 10:27:49;;;;;;;7.45;2.40;;;;;;;-148.88;74.11;76146.94;4976597;28;20026;-72
2022/10/09 10:30:17;;;;;;;8.57;2.75;;;;;;;-148.88;70.93;76151.00;4976784;28;20433;-72
2022/10/09 10:32:57;;;;;;;11.98;3.30;;;;;;;-148.88;72.73;76118.47;4976428;28;20026;-72
2022/10/09 10:35:31;;;;;;;12.75;4.97;;;;;;;-148.88;69.98;76081.91;4976475;28;20042;-72
2022/10/09 10:38:24;;;;;;;16.88;7.63;;;;;;;-148.88;70.20;76055.50;4976565;28;20541;-72
2022/10/09 10:41:21;;;;;;;15.95;8.25;;;;;;;-148.88;67.37;76033.16;4976379;28;20470;-72
2022/10/09 10:44:05;;;;;;;15.95;8.32;;;;;;;-148.88;67.69;76025.03;4971872;28;20082;-72
2022/10/09 10:46:47;;;;;;;11.20;4.70;;;;;;;-148.88;66.78;75994.56;4976413;28;20037;-72
2022/10/09 10:49:19;;;;;;;10.93;5.47;;;;;;;-148.88;65.48;75974.25;4975202;28;20034;-73
2022/10/09 10:52:06;;;;;;;8.85;3.20;;;;;;;-148.88;64.36;75943.78;4975011;28;20524;-72
2022/10/09 10:54:41;;;;;;;10.20;4.22;;;;;;;-148.88;63.41;75945.81;4974946;28;20035;-72
2022/10/09 10:57:29;;;;;;;29.10;10.55;;;;;;;-148.88;61.97;75925.50;4974906;28;20497;-72
2022/10/09 11:00:06;;;;;;;10.75;4.53;;;;;;;-148.88;63.39;75903.16;4976326;28;20030;-73
2022/10/09 11:02:58;;;;;;;6.93;2.72;;;;;;;-148.88;63.03;75909.25;4976092;28;20023;-73
2022/10/09 11:05:26;;;;;;;7.53;2.47;;;;;;;-148.88;60.02;75890.97;4975949;28;20030;-72
2022/10/09 11:08:06;;;;;;;7.80;2.80;;;;;;;-148.88;61.37;75862.53;4974443;28;20037;-72
2022/10/09 11:10:58;;;;;;;8.60;2.50;;;;;;;-148.88;58.72;75911.28;4975201;28;20125;-72
2022/10/09 11:13:32;;;;;;;5.05;2.20;;;;;;;-148.88;61.48;75895.03;4975713;28;20027;-72
2022/10/09 11:16:15;;;;;;;6.38;2.17;;;;;;;-148.88;59.59;75917.38;4975644;28;20027;-72